createdAt,value
2022-11-10T00:02:35.112Z,0.40
2022-11-10T00:05:21.518Z,0.70
2022-11-10T00:08:08.889Z,0.63
2022-11-10T00:10:57.665Z,0.50
2022-11-10T00:14:03.587Z,0.40
2022-11-10T00:17:03.646Z,0.40
2022-11-10T00:19:49.104Z,0.60
2022-11-10T00:22:36.508Z,0.30
2022-11-10T00:25:22.213Z,0.20
2022-11-10T00:28:07.350Z,0.30
2022-11-10T00:30:52.871Z,0.30
2022-11-10T00:33:40.832Z,0.32
2022-11-10T00:36:26.398Z,0.20
2022-11-10T00:39:12.342Z,0.30
2022-11-10T00:41:58.435Z,0.50
2022-11-10T00:44:43.933Z,0.38
2022-11-10T00:47:29.486Z,0.30
2022-11-10T00:50:15.102Z,0.40
2022-11-10T00:53:00.696Z,1.05
2022-11-10T00:55:46.163Z,0.50
2022-11-10T00:58:34.115Z,0.60
2022-11-10T01:01:21.380Z,0.70
2022-11-10T01:04:07.266Z,0.63
2022-11-10T01:06:52.961Z,0.50
2022-11-10T01:09:38.801Z,0.47
2022-11-10T01:12:24.397Z,0.65
2022-11-10T01:15:10.425Z,0.77
2022-11-10T01:17:56.587Z,0.50
2022-11-10T01:20:44.900Z,0.57
2022-11-10T01:23:30.454Z,1.38
2022-11-10T01:26:17.198Z,0.60
2022-11-10T01:29:05.378Z,0.60
2022-11-10T01:31:50.751Z,0.90
2022-11-10T01:34:36.165Z,0.68
2022-11-10T01:37:21.556Z,0.60
2022-11-10T01:40:07.924Z,0.68
2022-11-10T01:42:56.873Z,0.50
2022-11-10T01:46:04.397Z,0.70
2022-11-10T01:48:59.882Z,0.43
2022-11-10T01:51:52.985Z,0.38
2022-11-10T01:54:43.526Z,0.60
2022-11-10T01:57:29.215Z,0.50
2022-11-10T02:00:15.123Z,0.40
2022-11-10T02:03:23.246Z,0.40
2022-11-10T02:06:10.439Z,0.40
2022-11-10T02:08:59.505Z,0.55
2022-11-10T02:11:46.699Z,0.63
2022-11-10T02:14:33.550Z,0.90
2022-11-10T02:17:19.112Z,0.90
2022-11-10T02:20:10.160Z,1.55
2022-11-10T02:22:55.962Z,1.30
2022-11-10T02:25:41.654Z,1.30
2022-11-10T02:28:27.891Z,2.08
2022-11-10T02:31:13.435Z,1.60
2022-11-10T02:34:01.044Z,1.70
2022-11-10T02:36:49.584Z,0.63
2022-11-10T02:39:34.818Z,0.60
2022-11-10T02:42:20.182Z,0.77
2022-11-10T02:45:06.098Z,0.43
2022-11-10T02:47:52.098Z,0.68
2022-11-10T02:50:37.480Z,0.88
2022-11-10T02:53:23.287Z,1.33
2022-11-10T02:56:09.735Z,1.00
2022-11-10T02:58:55.281Z,0.70
2022-11-10T03:01:40.843Z,1.17
2022-11-10T03:04:26.679Z,1.02
2022-11-10T03:07:12.383Z,0.80
2022-11-10T03:09:58.081Z,1.02
2022-11-10T03:12:43.523Z,1.90
2022-11-10T03:15:29.518Z,1.45
2022-11-10T03:18:14.907Z,1.20
2022-11-10T03:21:05.067Z,1.88
2022-11-10T03:23:50.621Z,1.23
2022-11-10T03:26:35.972Z,0.95
2022-11-10T03:29:21.581Z,1.85
2022-11-10T03:32:06.819Z,1.38
2022-11-10T03:34:52.585Z,1.27
2022-11-10T03:37:38.134Z,1.05
2022-11-10T03:40:25.511Z,1.33
2022-11-10T03:43:12.258Z,0.80
2022-11-10T03:45:57.819Z,1.00
2022-11-10T03:48:45.355Z,0.80
2022-11-10T03:51:34.632Z,1.55
2022-11-10T03:54:20.218Z,1.35
2022-11-10T03:57:06.233Z,1.00
2022-11-10T03:59:51.547Z,0.60
2022-11-10T04:02:38.239Z,0.50
2022-11-10T04:05:41.960Z,0.52
2022-11-10T04:08:45.529Z,0.50
2022-11-10T04:11:50.600Z,0.98
2022-11-10T04:14:54.192Z,0.93
2022-11-10T04:17:39.566Z,0.68
2022-11-10T04:20:24.740Z,0.88
2022-11-10T04:23:28.326Z,1.05
2022-11-10T04:26:30.573Z,0.73
2022-11-10T04:29:18.070Z,0.70
2022-11-10T04:32:03.923Z,0.90
2022-11-10T04:34:49.365Z,0.70
2022-11-10T04:37:35.228Z,0.50
2022-11-10T04:40:20.691Z,0.77
2022-11-10T04:43:06.443Z,0.70
2022-11-10T04:45:51.952Z,0.70
2022-11-10T04:48:37.653Z,1.05
2022-11-10T04:51:28.086Z,0.90
2022-11-10T04:54:13.790Z,0.70
2022-11-10T04:56:59.144Z,0.60
2022-11-10T04:59:44.593Z,0.57
2022-11-10T05:02:29.687Z,0.90
2022-11-10T05:05:15.372Z,1.02
2022-11-10T05:08:00.818Z,0.88
2022-11-10T05:10:46.531Z,0.73
2022-11-10T05:13:35.603Z,0.50
2022-11-10T05:16:21.176Z,0.70
2022-11-10T05:19:06.864Z,0.70
2022-11-10T05:21:52.074Z,0.50
2022-11-10T05:24:39.700Z,0.80
2022-11-10T05:27:25.141Z,0.98
2022-11-10T05:30:10.966Z,0.93
2022-11-10T05:32:57.590Z,0.93
2022-11-10T05:35:44.310Z,1.60
2022-11-10T05:38:30.380Z,0.88
2022-11-10T05:41:16.063Z,1.00
2022-11-10T05:44:03.803Z,0.90
2022-11-10T05:46:49.403Z,1.20
2022-11-10T05:49:34.807Z,1.30
2022-11-10T05:52:20.025Z,0.90
2022-11-10T05:55:06.124Z,0.90
2022-11-10T05:57:53.404Z,1.70
2022-11-10T06:00:38.952Z,0.80
2022-11-10T06:03:25.109Z,1.05
2022-11-10T06:06:11.392Z,0.63
2022-11-10T06:08:56.717Z,1.02
2022-11-10T06:11:42.339Z,0.85
2022-11-10T06:14:27.804Z,1.15
2022-11-10T06:17:13.339Z,0.60
2022-11-10T06:19:58.646Z,0.65
2022-11-10T06:22:47.763Z,0.40
2022-11-10T06:25:35.585Z,0.52
2022-11-10T06:28:21.543Z,0.60
2022-11-10T06:31:07.271Z,0.38
2022-11-10T06:33:53.120Z,0.52
2022-11-10T06:36:45.295Z,0.30
2022-11-10T06:39:30.639Z,0.38
2022-11-10T06:42:15.792Z,0.57
2022-11-10T06:45:01.768Z,0.70
2022-11-10T06:47:47.463Z,0.35
2022-11-10T06:50:34.814Z,1.40
2022-11-10T06:53:25.803Z,0.45
2022-11-10T06:56:13.571Z,0.70
2022-11-10T06:58:58.939Z,0.30
2022-11-10T07:01:44.760Z,0.50
2022-11-10T07:04:33.295Z,0.50
2022-11-10T07:07:18.706Z,0.50
2022-11-10T07:10:07.199Z,0.55
2022-11-10T07:12:58.754Z,0.38
2022-11-10T07:15:44.159Z,0.65
2022-11-10T07:18:29.757Z,0.70
2022-11-10T07:21:15.550Z,1.00
2022-11-10T07:24:00.867Z,1.05
2022-11-10T07:26:46.700Z,0.98
2022-11-10T07:29:35.161Z,0.50
2022-11-10T07:32:23.669Z,0.40
2022-11-10T07:35:09.173Z,0.50
2022-11-10T07:37:55.764Z,0.57
2022-11-10T07:40:41.555Z,0.57
2022-11-10T07:43:30.248Z,0.55
2022-11-10T07:46:15.772Z,0.60
2022-11-10T07:49:03.633Z,0.40
2022-11-10T07:51:49.245Z,0.50
2022-11-10T07:54:34.693Z,0.40
2022-11-10T07:57:20.350Z,0.60
2022-11-10T08:00:06.318Z,0.47
2022-11-10T08:02:52.585Z,0.40
2022-11-10T08:05:38.577Z,1.05
2022-11-10T08:08:24.415Z,0.50
2022-11-10T08:11:09.635Z,0.85
2022-11-10T08:13:54.947Z,0.88
2022-11-10T08:16:42.898Z,0.70
2022-11-10T08:19:28.764Z,0.60
2022-11-10T08:22:14.578Z,0.80
2022-11-10T08:25:00.119Z,0.80
2022-11-10T08:27:45.906Z,0.55
2022-11-10T08:30:35.268Z,0.70
2022-11-10T08:33:21.980Z,0.88
2022-11-10T08:36:08.669Z,0.70
2022-11-10T08:38:54.172Z,0.85
2022-11-10T08:41:40.020Z,0.70
2022-11-10T08:44:25.663Z,1.17
2022-11-10T08:47:11.292Z,1.05
2022-11-10T08:49:56.870Z,1.15
2022-11-10T08:52:42.251Z,1.40
2022-11-10T08:55:27.874Z,1.67
2022-11-10T08:58:21.608Z,1.27
2022-11-10T09:01:11.723Z,0.75
2022-11-10T09:03:59.850Z,0.93
2022-11-10T09:06:45.409Z,1.30
2022-11-10T09:09:31.235Z,1.52
2022-11-10T09:12:16.655Z,1.38
2022-11-10T09:15:05.593Z,0.95
2022-11-10T09:17:51.035Z,1.70
2022-11-10T09:20:37.631Z,1.60
2022-11-10T09:23:25.210Z,1.45
2022-11-10T09:26:11.925Z,1.80
2022-11-10T09:29:02.887Z,1.17
2022-11-10T09:31:48.886Z,2.08
2022-11-10T09:34:34.426Z,1.38
2022-11-10T09:37:58.878Z,1.00
2022-11-10T09:41:03.066Z,0.85
2022-11-10T09:44:04.923Z,1.30
2022-11-10T09:47:42.241Z,1.55
2022-11-10T09:51:01.346Z,1.20
2022-11-10T09:54:18.825Z,0.77
2022-11-10T09:57:09.580Z,0.60
2022-11-10T09:59:55.438Z,1.42
2022-11-10T10:02:48.108Z,1.00
2022-11-10T10:06:02.653Z,1.45
2022-11-10T10:09:12.729Z,1.30
2022-11-10T10:12:11.100Z,1.70
2022-11-10T10:15:15.868Z,2.08
2022-11-10T10:18:07.704Z,1.33
2022-11-10T10:21:20.979Z,1.75
2022-11-10T10:24:16.538Z,2.45
2022-11-10T10:27:19.096Z,1.65
2022-11-10T10:30:13.789Z,1.10
2022-11-10T10:33:11.896Z,1.08
2022-11-10T10:36:09.698Z,2.30
2022-11-10T10:39:01.335Z,2.08
2022-11-10T10:41:46.931Z,1.50
2022-11-10T10:44:35.243Z,1.05
2022-11-10T10:47:36.873Z,1.33
2022-11-10T10:50:35.138Z,0.73
2022-11-10T10:53:23.513Z,0.60
2022-11-10T10:56:19.052Z,0.82
2022-11-10T10:59:17.338Z,1.02
2022-11-10T11:02:05.706Z,0.70
2022-11-10T11:05:08.860Z,1.27
2022-11-10T11:08:00.728Z,1.10
2022-11-10T11:10:49.684Z,1.15
2022-11-10T11:13:35.714Z,1.30
2022-11-10T11:16:21.266Z,1.58
2022-11-10T11:19:09.235Z,1.60
2022-11-10T11:22:13.092Z,1.77
2022-11-10T11:25:27.192Z,0.90
2022-11-10T11:28:35.329Z,1.25
2022-11-10T11:31:52.413Z,0.90
2022-11-10T11:35:16.240Z,0.90
2022-11-10T11:41:15.952Z,0.77
2022-11-10T11:44:16.878Z,0.90
2022-11-10T11:47:27.568Z,0.80
2022-11-10T11:50:34.136Z,0.65
2022-11-10T11:53:42.727Z,1.13
2022-11-10T11:56:39.039Z,1.08
2022-11-10T11:59:50.736Z,1.30
2022-11-10T12:02:58.368Z,1.17
2022-11-10T12:06:11.839Z,1.90
2022-11-10T12:12:10.450Z,1.10
2022-11-10T12:15:33.874Z,1.65
2022-11-10T12:18:22.556Z,1.30
2022-11-10T12:21:30.334Z,1.00
2022-11-10T12:24:45.102Z,1.02
2022-11-10T12:27:41.141Z,0.77
2022-11-10T12:31:12.468Z,0.70
2022-11-10T12:34:04.855Z,0.95
2022-11-10T12:36:51.940Z,1.08
2022-11-10T12:39:37.401Z,1.20
2022-11-10T12:42:27.281Z,1.20
2022-11-10T12:45:26.863Z,1.00
2022-11-10T12:48:21.536Z,0.77
2022-11-10T12:51:30.692Z,0.98
2022-11-10T12:54:18.020Z,0.98
2022-11-10T12:57:23.532Z,1.42
2022-11-10T13:00:28.820Z,0.70
2022-11-10T13:03:24.594Z,0.60
2022-11-10T13:06:30.296Z,0.90
2022-11-10T13:09:36.825Z,1.20
2022-11-10T13:12:23.584Z,0.47
2022-11-10T13:15:40.587Z,0.40
2022-11-10T13:18:32.209Z,0.40
2022-11-10T13:21:17.641Z,0.50
2022-11-10T13:24:25.383Z,0.50
2022-11-10T13:27:13.578Z,0.63
2022-11-10T13:29:59.866Z,0.63
2022-11-10T13:32:46.560Z,0.50
2022-11-10T13:35:38.338Z,0.85
2022-11-10T13:38:33.044Z,0.60
2022-11-10T13:41:18.504Z,0.63
2022-11-10T13:44:19.920Z,0.50
2022-11-10T13:47:08.619Z,1.02
2022-11-10T13:49:57.518Z,0.98
2022-11-10T13:52:51.979Z,0.85
2022-11-10T13:55:48.680Z,0.30
2022-11-10T13:58:36.589Z,0.50
2022-11-10T14:01:30.688Z,0.63
2022-11-10T14:04:40.622Z,0.50
2022-11-10T14:07:30.118Z,0.40
2022-11-10T14:10:18.617Z,0.70
2022-11-10T14:13:41.758Z,0.40
2022-11-10T14:16:31.554Z,0.82
2022-11-10T14:19:40.040Z,0.30
2022-11-10T14:22:34.587Z,0.30
2022-11-10T14:25:39.618Z,0.38
2022-11-10T14:28:29.260Z,0.35
2022-11-10T14:31:25.896Z,0.40
2022-11-10T14:34:17.586Z,0.43
2022-11-10T14:37:04.417Z,0.63
2022-11-10T14:39:53.292Z,0.30
2022-11-10T14:42:39.391Z,0.40
2022-11-10T14:45:27.381Z,0.47
2022-11-10T14:48:19.839Z,0.52
2022-11-10T14:51:15.535Z,0.30
2022-11-10T14:54:04.403Z,0.50
2022-11-10T14:56:50.895Z,0.60
2022-11-10T14:59:38.019Z,0.38
2022-11-10T15:02:27.229Z,0.47
2022-11-10T15:05:16.737Z,0.40
2022-11-10T15:08:06.282Z,0.30
2022-11-10T15:10:59.288Z,0.40
2022-11-10T15:13:45.106Z,0.57
2022-11-10T15:16:38.788Z,0.40
2022-11-10T15:19:29.415Z,0.32
2022-11-10T15:22:30.245Z,0.20
2022-11-10T15:25:19.036Z,0.50
2022-11-10T15:28:33.244Z,0.32
2022-11-10T15:31:27.164Z,0.30
2022-11-10T15:34:46.750Z,0.30
2022-11-10T15:37:34.540Z,0.20
2022-11-10T15:40:31.839Z,0.40
2022-11-10T15:43:22.023Z,0.20
2022-11-10T15:46:24.313Z,0.82
2022-11-10T15:49:22.537Z,0.20
2022-11-10T15:52:21.842Z,0.20
2022-11-10T15:55:23.275Z,0.30
2022-11-10T15:58:29.547Z,0.30
2022-11-10T16:01:17.389Z,0.40
2022-11-10T16:04:03.233Z,0.20
2022-11-10T16:06:48.649Z,0.38
2022-11-10T16:09:34.307Z,0.30
2022-11-10T16:12:22.516Z,0.22
2022-11-10T16:15:15.297Z,0.60
2022-11-10T16:18:03.226Z,0.20
2022-11-10T16:20:50.128Z,0.20
2022-11-10T16:23:35.580Z,0.30
2022-11-10T16:26:24.004Z,0.30
2022-11-10T16:29:17.129Z,0.30
2022-11-10T16:32:03.304Z,0.20
2022-11-10T16:34:48.834Z,0.20
2022-11-10T16:37:35.171Z,0.22
2022-11-10T16:40:23.631Z,0.30
2022-11-10T16:43:17.943Z,0.20
2022-11-10T16:46:07.522Z,0.30
2022-11-10T16:48:55.784Z,0.28
2022-11-10T16:51:48.292Z,0.35
2022-11-10T16:54:34.759Z,0.35
2022-11-10T16:57:20.734Z,0.30
2022-11-10T17:00:06.737Z,0.30
2022-11-10T17:03:11.762Z,0.30
2022-11-10T17:06:00.438Z,0.30
2022-11-10T17:08:48.649Z,0.30
2022-11-10T17:11:34.436Z,0.32
2022-11-10T17:14:20.601Z,0.32
2022-11-10T17:17:09.898Z,0.20
2022-11-10T17:19:55.513Z,0.20
2022-11-10T17:22:43.671Z,0.52
2022-11-10T17:25:32.431Z,0.50
2022-11-10T17:28:19.303Z,0.13
2022-11-10T17:31:05.187Z,0.22
2022-11-10T17:33:50.926Z,0.30
2022-11-10T17:36:44.004Z,0.20
2022-11-10T17:42:21.678Z,0.28
2022-11-10T17:45:21.211Z,0.35
2022-11-10T17:48:27.021Z,0.30
2022-11-10T17:51:52.752Z,0.20
2022-11-10T17:54:39.864Z,0.20
2022-11-10T17:57:28.556Z,0.20
2022-11-10T18:00:16.051Z,0.25
2022-11-10T18:03:02.847Z,0.50
2022-11-10T18:05:51.204Z,0.43
2022-11-10T18:08:37.834Z,0.20
2022-11-10T18:11:23.462Z,0.25
2022-11-10T18:14:10.900Z,0.30
2022-11-10T18:16:56.337Z,0.30
2022-11-10T18:19:41.668Z,0.30
2022-11-10T18:22:27.256Z,0.22
2022-11-10T18:25:12.987Z,0.30
2022-11-10T18:27:58.721Z,0.30
2022-11-10T18:30:44.398Z,0.35
2022-11-10T18:33:32.634Z,0.35
2022-11-10T18:36:18.346Z,0.25
2022-11-10T18:39:09.959Z,0.38
2022-11-10T18:42:03.590Z,0.50
2022-11-10T18:44:51.497Z,0.47
2022-11-10T18:50:44.121Z,0.50
2022-11-10T18:53:37.044Z,0.50
2022-11-10T18:56:24.487Z,0.80
2022-11-10T18:59:15.248Z,0.60
2022-11-10T19:02:01.411Z,0.70
2022-11-10T19:04:56.281Z,0.70
2022-11-10T19:07:42.194Z,0.73
2022-11-10T19:10:28.469Z,0.82
2022-11-10T19:13:15.473Z,0.82
2022-11-10T19:16:20.735Z,1.02
2022-11-10T19:19:06.574Z,1.10
2022-11-10T19:21:52.272Z,0.80
2022-11-10T19:25:00.877Z,0.95
2022-11-10T19:27:43.728Z,1.25
2022-11-10T19:30:29.379Z,1.30
2022-11-10T19:33:16.458Z,1.35
2022-11-10T19:36:07.602Z,1.70
2022-11-10T19:38:57.128Z,1.27
2022-11-10T19:41:42.493Z,1.42
2022-11-10T19:44:30.898Z,1.95
2022-11-10T19:47:16.316Z,1.67
2022-11-10T19:50:03.897Z,1.60
2022-11-10T19:52:49.355Z,1.60
2022-11-10T19:55:35.973Z,1.50
2022-11-10T19:58:28.019Z,1.33
2022-11-10T20:01:15.832Z,1.47
2022-11-10T20:04:29.901Z,1.65
2022-11-10T20:07:34.104Z,2.30
2022-11-10T20:10:26.399Z,2.03
2022-11-10T20:13:14.352Z,1.60
2022-11-10T20:16:07.005Z,1.33
2022-11-10T20:18:53.025Z,1.20
2022-11-10T20:21:38.278Z,1.55
2022-11-10T20:24:24.001Z,1.10
2022-11-10T20:27:09.524Z,0.98
2022-11-10T20:29:55.398Z,1.23
2022-11-10T20:32:40.720Z,0.98
2022-11-10T20:35:26.689Z,1.13
2022-11-10T20:38:12.330Z,1.45
2022-11-10T20:41:11.711Z,1.45
2022-11-10T20:43:57.876Z,1.02
2022-11-10T20:46:59.134Z,1.00
2022-11-10T20:49:44.993Z,1.40
2022-11-10T20:52:35.396Z,1.45
2022-11-10T20:55:36.960Z,1.80
2022-11-10T20:58:27.722Z,1.90
2022-11-10T21:01:15.327Z,1.67
2022-11-10T21:04:13.592Z,1.70
2022-11-10T21:06:59.597Z,1.58
2022-11-10T21:09:49.760Z,1.73
2022-11-10T21:12:49.661Z,1.50
2022-11-10T21:15:39.038Z,1.48
2022-11-10T21:18:36.261Z,2.10
2022-11-10T21:21:26.483Z,1.15
2022-11-10T21:24:15.240Z,1.83
2022-11-10T21:27:07.258Z,1.52
2022-11-10T21:29:53.089Z,1.25
2022-11-10T21:32:44.666Z,0.90
2022-11-10T21:38:58.693Z,1.42
2022-11-10T21:41:44.329Z,1.73
2022-11-10T21:44:30.136Z,1.60
2022-11-10T21:47:16.360Z,2.40
2022-11-10T21:50:02.040Z,2.40
2022-11-10T21:52:48.079Z,1.60
2022-11-10T21:55:33.626Z,1.40
2022-11-10T21:58:24.749Z,1.75
2022-11-10T22:01:16.304Z,1.70
2022-11-10T22:04:01.790Z,0.98
2022-11-10T22:07:05.908Z,1.30
2022-11-10T22:10:12.235Z,1.23
2022-11-10T22:13:16.232Z,0.85
2022-11-10T22:16:33.611Z,2.20
2022-11-10T22:19:19.362Z,1.95
2022-11-10T22:22:05.506Z,1.27
2022-11-10T22:24:51.195Z,1.30
2022-11-10T22:27:36.298Z,2.03
2022-11-10T22:30:21.958Z,1.63
2022-11-10T22:33:27.154Z,1.30
2022-11-10T22:36:15.401Z,1.40
2022-11-10T22:39:03.783Z,1.33
2022-11-10T22:42:08.789Z,1.20
2022-11-10T22:44:54.351Z,1.30
2022-11-10T22:47:58.746Z,1.10
2022-11-10T22:50:57.356Z,1.23
2022-11-10T22:53:43.564Z,2.50
2022-11-10T22:56:32.118Z,1.60
2022-11-10T22:59:20.987Z,1.27
2022-11-10T23:02:06.490Z,1.90
2022-11-10T23:04:52.384Z,1.90
2022-11-10T23:07:42.071Z,1.98
2022-11-10T23:10:28.117Z,1.63
2022-11-10T23:13:15.078Z,2.20
2022-11-10T23:16:15.669Z,1.65
2022-11-10T23:19:13.306Z,1.27
2022-11-10T23:21:58.501Z,1.30
2022-11-10T23:24:44.471Z,1.05
2022-11-10T23:27:32.749Z,1.33
2022-11-10T23:30:18.250Z,1.20
2022-11-10T23:33:03.777Z,2.25
2022-11-10T23:35:49.351Z,3.13
2022-11-10T23:38:36.393Z,2.65
2022-11-10T23:41:29.593Z,1.92
2022-11-10T23:44:15.384Z,3.05
2022-11-10T23:47:10.885Z,4.18
2022-11-10T23:50:03.538Z,3.03
2022-11-10T23:52:54.337Z,2.10
2022-11-10T23:55:40.893Z,2.33
2022-11-10T23:58:26.433Z,1.98
